createdAt,value
2019-04-26T00:00:09.282Z,62.63
2019-04-26T00:02:43.050Z,68.33
2019-04-26T00:05:12.487Z,92.17
2019-04-26T00:07:41.308Z,86.17
2019-04-26T00:10:18.120Z,71.03
2019-04-26T00:12:51.378Z,71.30
2019-04-26T00:15:27.610Z,70.60
2019-04-26T00:17:58.046Z,69.03
2019-04-26T00:20:26.522Z,72.90
2019-04-26T00:22:55.006Z,70.00
2019-04-26T00:25:23.533Z,65.20
2019-04-26T00:27:52.006Z,77.93
2019-04-26T00:30:21.282Z,65.97
2019-04-26T00:32:49.922Z,72.80
2019-04-26T00:35:18.409Z,62.07
2019-04-26T00:37:46.905Z,60.10
2019-04-26T00:40:16.229Z,63.97
2019-04-26T00:42:45.533Z,55.07
2019-04-26T00:45:14.978Z,58.33
2019-04-26T00:47:44.136Z,61.90
2019-04-26T00:50:13.918Z,60.37
2019-04-26T00:52:44.091Z,64.47
2019-04-26T00:55:14.168Z,70.47
2019-04-26T00:57:42.990Z,61.37
2019-04-26T01:00:13.585Z,68.63
2019-04-26T01:02:43.745Z,67.97
2019-04-26T01:05:12.307Z,59.87
2019-04-26T01:07:42.413Z,61.50
2019-04-26T01:10:10.947Z,66.10
2019-04-26T01:12:39.435Z,59.90
2019-04-26T01:15:08.761Z,64.70
2019-04-26T01:17:37.359Z,62.10
2019-04-26T01:20:06.976Z,65.53
2019-04-26T01:22:38.667Z,60.53
2019-04-26T01:25:07.332Z,57.07
2019-04-26T01:27:36.300Z,60.87
2019-04-26T01:30:07.959Z,64.00
2019-04-26T01:32:38.402Z,68.10
2019-04-26T01:35:07.215Z,64.30
2019-04-26T01:37:35.926Z,71.13
2019-04-26T01:40:07.727Z,64.80
2019-04-26T01:42:50.513Z,64.23
2019-04-26T01:45:26.439Z,63.20
2019-04-26T01:47:58.102Z,76.53
2019-04-26T01:50:29.428Z,61.10
2019-04-26T01:52:59.463Z,52.07
2019-04-26T01:55:29.152Z,65.40
2019-04-26T01:57:59.312Z,60.17
2019-04-26T02:00:29.603Z,58.20
2019-04-26T02:02:59.694Z,66.03
2019-04-26T02:05:28.176Z,63.47
2019-04-26T02:07:56.795Z,60.47
2019-04-26T02:10:26.674Z,58.03
2019-04-26T02:12:56.058Z,60.60
2019-04-26T02:15:27.804Z,63.17
2019-04-26T02:17:57.065Z,73.73
2019-04-26T02:20:52.741Z,69.07
2019-04-26T02:23:28.559Z,71.93
2019-04-26T02:25:57.119Z,58.17
2019-04-26T02:28:26.715Z,64.90
2019-04-26T02:30:55.400Z,62.67
2019-04-26T02:33:25.306Z,59.63
2019-04-26T02:35:54.208Z,63.57
2019-04-26T02:38:22.776Z,62.33
2019-04-26T02:40:51.714Z,58.27
2019-04-26T02:43:21.989Z,69.07
2019-04-26T02:45:52.681Z,70.80
2019-04-26T02:48:34.852Z,69.50
2019-04-26T02:51:07.252Z,58.40
2019-04-26T02:53:51.082Z,59.17
2019-04-26T02:56:22.732Z,62.50
2019-04-26T02:58:57.119Z,63.47
2019-04-26T03:01:29.285Z,65.40
2019-04-26T03:03:57.474Z,66.90
2019-04-26T03:06:26.809Z,58.90
2019-04-26T03:08:58.141Z,66.80
2019-04-26T03:11:31.461Z,73.77
2019-04-26T03:14:12.181Z,78.87
2019-04-26T03:16:54.394Z,66.07
2019-04-26T03:19:35.309Z,61.60
2019-04-26T03:22:18.732Z,60.50
2019-04-26T03:25:05.247Z,63.53
2019-04-26T03:27:43.541Z,64.47
2019-04-26T03:30:23.157Z,57.80
2019-04-26T03:33:24.930Z,56.83
2019-04-26T03:36:16.470Z,65.83
2019-04-26T03:38:58.407Z,54.67
2019-04-26T03:41:44.463Z,62.63
2019-04-26T03:44:22.052Z,50.70
2019-04-26T03:46:53.691Z,61.70
2019-04-26T03:49:42.020Z,53.43
2019-04-26T03:52:21.965Z,47.83
2019-04-26T03:54:56.311Z,49.30
2019-04-26T03:57:30.056Z,47.07
2019-04-26T04:00:23.409Z,65.07
2019-04-26T04:03:32.777Z,60.93
2019-04-26T04:06:03.534Z,57.50
2019-04-26T04:08:42.849Z,57.77
2019-04-26T04:11:14.440Z,52.37
2019-04-26T04:13:55.224Z,51.77
2019-04-26T04:16:27.461Z,49.17
2019-04-26T04:19:25.156Z,56.47
2019-04-26T04:22:02.810Z,54.50
2019-04-26T04:24:41.773Z,59.23
2019-04-26T04:27:14.454Z,62.53
2019-04-26T04:29:55.320Z,60.57
2019-04-26T04:32:47.519Z,63.40
2019-04-26T04:35:17.074Z,61.97
2019-04-26T04:38:10.075Z,61.93
2019-04-26T04:40:47.189Z,62.90
2019-04-26T04:43:23.119Z,57.27
2019-04-26T04:46:08.668Z,62.70
2019-04-26T04:49:24.341Z,48.23
2019-04-26T04:52:11.054Z,60.50
2019-04-26T04:55:14.351Z,54.43
2019-04-26T04:57:54.865Z,48.50
2019-04-26T05:00:43.515Z,55.83
2019-04-26T05:03:26.048Z,54.07
2019-04-26T05:06:11.416Z,51.53
2019-04-26T05:08:52.995Z,52.40
2019-04-26T05:11:25.583Z,48.77
2019-04-26T05:14:16.696Z,65.80
2019-04-26T05:16:54.668Z,60.57
2019-04-26T05:19:41.416Z,55.80
2019-04-26T05:22:32.037Z,54.83
2019-04-26T05:25:21.883Z,52.50
2019-04-26T05:28:14.670Z,60.87
2019-04-26T05:31:21.582Z,49.53
2019-04-26T05:34:07.830Z,60.87
2019-04-26T05:36:52.671Z,52.77
2019-04-26T05:39:24.409Z,59.63
2019-04-26T05:42:21.491Z,60.70
2019-04-26T05:45:18.988Z,62.63
2019-04-26T05:48:16.371Z,49.00
2019-04-26T05:51:21.137Z,69.57
2019-04-26T05:54:08.979Z,55.37
2019-04-26T05:56:56.770Z,69.60
2019-04-26T05:59:50.609Z,65.73
2019-04-26T06:02:31.113Z,61.53
2019-04-26T06:05:25.270Z,54.63
2019-04-26T06:08:01.551Z,58.67
2019-04-26T06:10:49.067Z,57.70
2019-04-26T06:13:43.270Z,58.07
2019-04-26T06:16:22.373Z,58.80
2019-04-26T06:19:13.100Z,65.90
2019-04-26T06:21:53.808Z,78.57
2019-04-26T06:24:28.187Z,68.63
2019-04-26T06:27:13.654Z,62.97
2019-04-26T06:29:49.853Z,63.00
2019-04-26T06:32:24.350Z,60.57
2019-04-26T06:35:11.060Z,68.53
2019-04-26T06:38:14.599Z,59.00
2019-04-26T06:41:21.262Z,60.33
2019-04-26T06:43:53.964Z,74.60
2019-04-26T06:46:39.612Z,50.80
2019-04-26T06:49:18.594Z,64.53
2019-04-26T06:52:02.599Z,55.63
2019-04-26T06:54:57.779Z,58.57
2019-04-26T06:58:07.250Z,60.97
2019-04-26T07:00:49.597Z,45.03
2019-04-26T07:03:38.426Z,51.87
2019-04-26T07:06:09.189Z,40.50
2019-04-26T07:08:56.605Z,61.53
2019-04-26T07:11:40.074Z,49.93
2019-04-26T07:14:37.376Z,45.00
2019-04-26T07:17:09.053Z,58.13
2019-04-26T07:20:16.863Z,49.93
2019-04-26T07:22:55.503Z,50.43
2019-04-26T07:25:54.516Z,38.47
2019-04-26T07:28:47.438Z,46.60
2019-04-26T07:31:35.920Z,47.73
2019-04-26T07:34:40.573Z,71.50
2019-04-26T07:37:34.813Z,42.73
2019-04-26T07:40:39.811Z,39.87
2019-04-26T07:43:29.927Z,32.73
2019-04-26T07:46:24.513Z,45.90
2019-04-26T07:49:12.503Z,37.60
2019-04-26T07:51:53.264Z,38.80
2019-04-26T07:54:41.452Z,43.40
2019-04-26T07:57:20.181Z,40.70
2019-04-26T08:00:15.677Z,29.47
2019-04-26T08:03:04.105Z,29.70
2019-04-26T08:05:50.613Z,32.93
2019-04-26T08:08:21.059Z,31.13
2019-04-26T08:11:10.943Z,47.63
2019-04-26T08:13:59.066Z,28.80
2019-04-26T08:16:33.022Z,29.60
2019-04-26T08:19:08.869Z,42.43
2019-04-26T08:21:42.456Z,31.33
2019-04-26T08:24:16.748Z,37.77
2019-04-26T08:26:48.517Z,45.23
2019-04-26T08:29:19.447Z,33.83
2019-04-26T08:31:49.662Z,59.23
2019-04-26T08:34:28.877Z,47.70
2019-04-26T08:36:57.238Z,36.93
2019-04-26T08:39:32.402Z,22.73
2019-04-26T08:41:58.555Z,32.53
2019-04-26T08:44:42.324Z,19.37
2019-04-26T08:47:28.960Z,26.57
2019-04-26T08:50:13.694Z,34.47
2019-04-26T08:52:44.250Z,25.93
2019-04-26T08:55:13.180Z,22.27
2019-04-26T08:57:43.193Z,32.33
2019-04-26T09:00:16.756Z,24.83
2019-04-26T09:02:54.285Z,29.77
2019-04-26T09:05:45.727Z,23.57
2019-04-26T09:08:15.728Z,21.07
2019-04-26T09:10:47.116Z,35.17
2019-04-26T09:13:17.128Z,32.77
2019-04-26T09:16:03.213Z,31.30
2019-04-26T09:18:42.323Z,31.97
2019-04-26T09:21:01.975Z,23.97
2019-04-26T09:23:51.019Z,26.37
2019-04-26T09:26:22.865Z,22.80
2019-04-26T09:29:08.250Z,29.37
2019-04-26T09:31:44.127Z,27.47
2019-04-26T09:34:21.317Z,22.07
2019-04-26T09:36:49.815Z,33.43
2019-04-26T09:39:18.363Z,22.73
2019-04-26T09:41:47.043Z,31.83
2019-04-26T09:44:33.085Z,18.83
2019-04-26T09:47:19.361Z,18.30
2019-04-26T09:49:52.152Z,25.33
2019-04-26T09:52:44.084Z,45.00
2019-04-26T09:55:12.720Z,27.80
2019-04-26T09:57:41.196Z,22.03
2019-04-26T10:00:14.262Z,17.90
2019-04-26T10:02:42.788Z,21.13
2019-04-26T10:05:11.919Z,23.73
2019-04-26T10:07:41.704Z,29.53
2019-04-26T10:10:22.355Z,21.03
2019-04-26T10:12:59.756Z,17.97
2019-04-26T10:15:41.931Z,22.47
2019-04-26T10:18:10.485Z,24.90
2019-04-26T10:20:38.969Z,22.17
2019-04-26T10:23:07.507Z,22.40
2019-04-26T10:25:36.027Z,24.93
2019-04-26T10:28:04.668Z,16.83
2019-04-26T10:30:33.139Z,28.13
2019-04-26T10:33:02.172Z,30.93
2019-04-26T10:35:31.793Z,25.10
2019-04-26T10:38:00.292Z,23.50
2019-04-26T10:40:35.359Z,14.27
2019-04-26T10:42:59.026Z,31.57
2019-04-26T10:45:29.159Z,17.70
2019-04-26T10:47:57.687Z,20.83
2019-04-26T10:50:28.735Z,17.83
2019-04-26T10:53:13.272Z,13.87
2019-04-26T10:55:46.462Z,32.40
2019-04-26T10:58:27.540Z,16.80
2019-04-26T11:01:00.745Z,16.00
2019-04-26T11:03:29.222Z,18.00
2019-04-26T11:05:57.735Z,20.80
2019-04-26T11:08:26.213Z,15.40
2019-04-26T11:10:54.828Z,19.60
2019-04-26T11:13:23.561Z,22.90
2019-04-26T11:15:52.124Z,22.90
2019-04-26T11:18:27.331Z,18.00
2019-04-26T11:20:50.837Z,20.23
2019-04-26T11:23:19.327Z,21.83
2019-04-26T11:25:47.886Z,17.97
2019-04-26T11:28:17.154Z,15.87
2019-04-26T11:30:48.063Z,24.93
2019-04-26T11:33:16.840Z,31.27
2019-04-26T11:35:45.449Z,12.60
2019-04-26T11:38:13.971Z,17.63
2019-04-26T11:40:44.353Z,21.00
2019-04-26T11:43:15.760Z,22.63
2019-04-26T11:45:45.343Z,16.47
2019-04-26T11:48:13.101Z,29.97
2019-04-26T11:50:41.641Z,17.40
2019-04-26T11:53:11.297Z,25.83
2019-04-26T11:55:39.829Z,12.40
2019-04-26T11:58:08.351Z,13.53
2019-04-26T12:00:44.591Z,15.70
2019-04-26T12:03:13.141Z,24.40
2019-04-26T12:05:45.740Z,14.13
2019-04-26T12:08:21.656Z,16.03
2019-04-26T12:10:50.136Z,13.93
2019-04-26T12:13:21.364Z,17.73
2019-04-26T12:15:49.139Z,17.37
2019-04-26T12:18:17.673Z,22.90
2019-04-26T12:20:46.173Z,20.00
2019-04-26T12:23:20.759Z,10.13
2019-04-26T12:25:48.035Z,13.13
2019-04-26T12:28:15.087Z,10.33
2019-04-26T12:30:43.672Z,11.87
2019-04-26T12:33:12.216Z,7.77
2019-04-26T12:35:40.711Z,15.87
2019-04-26T12:38:09.314Z,19.37
2019-04-26T12:40:37.793Z,10.20
2019-04-26T12:43:06.406Z,12.93
2019-04-26T12:45:36.604Z,22.63
2019-04-26T12:48:12.314Z,15.60
2019-04-26T12:50:39.786Z,24.30
2019-04-26T12:53:08.305Z,14.27
2019-04-26T12:55:36.783Z,14.97
2019-04-26T12:58:05.344Z,17.07
2019-04-26T13:00:37.614Z,24.70
2019-04-26T13:03:05.771Z,26.57
2019-04-26T13:05:34.338Z,13.90
2019-04-26T13:08:02.836Z,17.70
2019-04-26T13:10:48.318Z,16.80
2019-04-26T13:13:18.502Z,20.67
2019-04-26T13:15:50.372Z,18.93
2019-04-26T13:18:19.825Z,24.23
2019-04-26T13:20:48.483Z,27.00
2019-04-26T13:23:17.016Z,17.60
2019-04-26T13:25:45.481Z,20.43
2019-04-26T13:28:15.655Z,15.57
2019-04-26T13:30:44.925Z,34.67
2019-04-26T13:33:13.494Z,37.77
2019-04-26T13:35:46.705Z,27.73
2019-04-26T13:38:12.266Z,33.20
2019-04-26T13:40:40.807Z,18.63
2019-04-26T13:43:09.400Z,20.23
2019-04-26T13:45:55.704Z,17.10
2019-04-26T13:48:43.686Z,16.73
2019-04-26T13:51:26.410Z,16.57
2019-04-26T13:53:54.911Z,10.50
2019-04-26T13:56:23.468Z,11.93
2019-04-26T13:58:54.469Z,13.97
2019-04-26T14:01:22.200Z,20.23
2019-04-26T14:03:50.678Z,13.87
2019-04-26T14:06:19.177Z,11.13
2019-04-26T14:08:47.715Z,16.30
2019-04-26T14:11:16.267Z,25.50
2019-04-26T14:13:44.837Z,12.80
2019-04-26T14:16:13.373Z,16.20
2019-04-26T14:18:41.847Z,9.87
2019-04-26T14:21:10.343Z,8.30
2019-04-26T14:23:40.575Z,21.93
2019-04-26T14:26:16.521Z,8.83
2019-04-26T14:28:45.024Z,9.97
2019-04-26T14:31:16.621Z,21.40
2019-04-26T14:33:43.781Z,4.80
2019-04-26T14:36:18.140Z,6.00
2019-04-26T14:38:42.497Z,5.50
2019-04-26T14:41:13.328Z,9.47
2019-04-26T14:43:41.637Z,4.90
2019-04-26T14:46:14.035Z,6.73
2019-04-26T14:48:44.570Z,9.60
2019-04-26T14:51:12.395Z,11.97
2019-04-26T14:53:40.905Z,37.50
2019-04-26T14:56:09.387Z,40.37
2019-04-26T14:58:37.917Z,55.33
2019-04-26T15:01:08.048Z,57.57
2019-04-26T15:03:40.896Z,61.03
2019-04-26T15:06:12.801Z,62.27
2019-04-26T15:08:45.253Z,47.73
2019-04-26T15:11:12.859Z,53.00
2019-04-26T15:13:43.745Z,53.37
2019-04-26T15:16:13.998Z,46.97
2019-04-26T15:18:42.626Z,52.53
2019-04-26T15:21:12.926Z,55.90
2019-04-26T15:23:41.584Z,58.17
2019-04-26T15:26:10.089Z,55.70
2019-04-26T15:28:38.633Z,49.47
2019-04-26T15:31:07.116Z,45.60
2019-04-26T15:33:36.040Z,49.63
2019-04-26T15:36:06.262Z,59.77
2019-04-26T15:38:41.557Z,45.30
2019-04-26T15:41:24.738Z,47.87
2019-04-26T15:43:55.363Z,64.43
2019-04-26T15:46:25.480Z,58.47
2019-04-26T15:48:58.617Z,52.63
2019-04-26T15:51:28.732Z,58.73
2019-04-26T15:53:57.222Z,60.60
2019-04-26T15:56:25.721Z,61.07
2019-04-26T15:58:54.245Z,52.90
2019-04-26T16:01:22.740Z,55.00
2019-04-26T16:03:52.921Z,57.43
2019-04-26T16:06:21.603Z,50.70
2019-04-26T16:08:50.093Z,57.70
2019-04-26T16:11:18.645Z,55.00
2019-04-26T16:13:52.194Z,47.87
2019-04-26T16:16:20.555Z,52.33
2019-04-26T16:18:49.887Z,47.80
2019-04-26T16:21:19.385Z,50.00
2019-04-26T16:23:52.019Z,49.27
2019-04-26T16:26:18.279Z,54.97
2019-04-26T16:29:04.486Z,44.43
2019-04-26T16:31:47.129Z,48.20
2019-04-26T16:34:23.451Z,46.63
2019-04-26T16:36:52.564Z,63.33
2019-04-26T16:39:23.218Z,56.70
2019-04-26T16:41:52.378Z,40.77
2019-04-26T16:44:28.222Z,49.20
2019-04-26T16:46:53.932Z,43.90
2019-04-26T16:49:23.385Z,50.87
2019-04-26T16:54:26.553Z,52.20
2019-04-26T16:56:52.701Z,55.73
2019-04-26T16:59:23.879Z,61.20
2019-04-26T17:00:45.475Z,63.07
2019-04-26T17:01:53.638Z,60.13
2019-04-26T17:04:28.355Z,65.60
2019-04-26T17:06:52.959Z,56.30
2019-04-26T17:09:23.508Z,60.17
2019-04-26T17:11:52.383Z,60.53
2019-04-26T17:14:24.054Z,55.03
2019-04-26T17:16:53.253Z,64.23
2019-04-26T17:19:22.820Z,76.13
2019-04-26T17:21:56.532Z,64.77
2019-04-26T17:24:38.089Z,61.57
2019-04-26T17:27:14.439Z,83.47
2019-04-26T17:29:42.369Z,73.30
2019-04-26T17:32:13.908Z,74.23
2019-04-26T17:34:41.176Z,77.37
2019-04-26T17:37:14.311Z,75.90
2019-04-26T17:39:40.758Z,90.60
2019-04-26T17:42:10.543Z,83.20
2019-04-26T17:44:39.107Z,75.70
2019-04-26T17:47:08.510Z,75.73
2019-04-26T17:49:40.205Z,63.33
2019-04-26T17:52:07.813Z,65.83
2019-04-26T17:54:46.334Z,67.37
2019-04-26T17:57:08.839Z,71.83
2019-04-26T17:59:37.150Z,60.70
2019-04-26T18:02:18.350Z,66.30
2019-04-26T18:04:40.509Z,70.13
2019-04-26T18:07:33.770Z,57.20
2019-04-26T18:09:43.237Z,65.67
2019-04-26T18:12:08.121Z,58.10
2019-04-26T18:14:36.617Z,55.13
2019-04-26T18:17:06.808Z,68.60
2019-04-26T18:19:45.789Z,47.67
2019-04-26T18:22:28.455Z,50.73
2019-04-26T18:24:55.425Z,51.63
2019-04-26T18:27:24.050Z,44.40
2019-04-26T18:29:53.211Z,37.63
2019-04-26T18:32:22.228Z,36.57
2019-04-26T18:34:50.697Z,37.53
2019-04-26T18:37:19.188Z,39.33
2019-04-26T18:39:47.737Z,35.10
2019-04-26T18:42:18.338Z,29.77
2019-04-26T18:44:47.998Z,30.50
2019-04-26T18:47:20.545Z,33.03
2019-04-26T18:49:52.116Z,31.27
2019-04-26T18:52:19.402Z,34.90
2019-04-26T18:54:53.557Z,31.87
2019-04-26T18:57:23.716Z,27.53
2019-04-26T18:59:52.991Z,29.90
2019-04-26T19:02:23.619Z,27.30
2019-04-26T19:04:52.950Z,39.03
2019-04-26T19:07:31.959Z,34.07
2019-04-26T19:10:02.808Z,34.03
2019-04-26T19:12:26.679Z,48.07
2019-04-26T19:15:07.141Z,36.07
2019-04-26T19:17:37.873Z,33.90
2019-04-26T19:20:20.524Z,26.13
2019-04-26T19:22:53.858Z,31.37
2019-04-26T19:25:24.970Z,34.10
2019-04-26T19:27:54.108Z,32.37
2019-04-26T19:30:22.756Z,36.03
2019-04-26T19:32:53.538Z,27.87
2019-04-26T19:35:21.974Z,22.83
2019-04-26T19:37:51.797Z,27.93
2019-04-26T19:40:20.437Z,38.97
2019-04-26T19:42:53.670Z,31.30
2019-04-26T19:45:23.556Z,23.47
2019-04-26T19:47:56.678Z,25.53
2019-04-26T19:50:29.782Z,28.90
2019-04-26T19:53:02.686Z,32.13
2019-04-26T19:55:47.490Z,24.43
2019-04-26T19:58:20.130Z,29.50
2019-04-26T20:00:46.764Z,24.83
2019-04-26T20:03:16.788Z,32.03
2019-04-26T20:05:44.750Z,22.47
2019-04-26T20:08:13.236Z,23.13
2019-04-26T20:10:45.510Z,39.40
2019-04-26T20:13:15.137Z,16.80
2019-04-26T20:15:42.379Z,17.30
2019-04-26T20:18:12.246Z,16.43
2019-04-26T20:20:41.394Z,13.80
2019-04-26T20:23:10.136Z,24.83
2019-04-26T20:25:38.896Z,16.20
2019-04-26T20:28:07.402Z,11.10
2019-04-26T20:30:39.979Z,16.43
2019-04-26T20:33:08.479Z,13.50
2019-04-26T20:35:37.002Z,16.57
2019-04-26T20:38:05.874Z,18.40
2019-04-26T20:40:34.353Z,14.63
2019-04-26T20:43:06.814Z,11.53
2019-04-26T20:45:41.311Z,14.00
2019-04-26T20:48:03.297Z,9.53
2019-04-26T20:50:33.464Z,20.63
2019-04-26T20:53:02.358Z,15.03
2019-04-26T20:55:34.414Z,14.23
2019-04-26T20:58:05.754Z,12.53
2019-04-26T21:00:31.759Z,11.80
2019-04-26T21:03:05.844Z,15.60
2019-04-26T21:05:43.324Z,12.60
2019-04-26T21:08:03.366Z,17.30
2019-04-26T21:10:32.379Z,13.77
2019-04-26T21:13:01.897Z,14.53
2019-04-26T21:15:32.143Z,23.23
2019-04-26T21:18:03.844Z,14.20
2019-04-26T21:20:32.747Z,29.47
2019-04-26T21:23:02.474Z,11.27
2019-04-26T21:25:35.917Z,13.97
2019-04-26T21:28:09.567Z,14.80
2019-04-26T21:30:39.726Z,16.07
2019-04-26T21:33:21.915Z,15.17
2019-04-26T21:36:01.818Z,15.60
2019-04-26T21:38:33.353Z,12.43
2019-04-26T21:41:11.446Z,16.70
2019-04-26T21:43:38.274Z,16.57
2019-04-26T21:46:08.377Z,20.00
2019-04-26T21:48:41.287Z,20.73
2019-04-26T21:51:08.498Z,17.30
2019-04-26T21:53:38.287Z,17.73
2019-04-26T21:56:11.516Z,18.23
2019-04-26T21:58:38.174Z,18.03
2019-04-26T22:01:11.023Z,13.87
2019-04-26T22:03:38.637Z,13.70
2019-04-26T22:06:07.264Z,14.73
2019-04-26T22:08:37.397Z,15.13
2019-04-26T22:11:05.939Z,13.97
2019-04-26T22:13:52.227Z,15.60
2019-04-26T22:16:36.002Z,19.43
2019-04-26T22:19:03.928Z,14.63
2019-04-26T22:21:43.527Z,19.20
2019-04-26T22:24:25.481Z,13.93
2019-04-26T22:26:54.147Z,16.43
2019-04-26T22:29:23.024Z,18.23
2019-04-26T22:31:54.613Z,15.93
2019-04-26T22:34:23.446Z,17.40
2019-04-26T22:36:53.686Z,17.27
2019-04-26T22:39:22.811Z,16.90
2019-04-26T22:41:53.432Z,22.37
2019-04-26T22:44:35.530Z,21.10
2019-04-26T22:47:23.923Z,18.90
2019-04-26T22:49:52.252Z,24.23
2019-04-26T22:52:20.734Z,18.70
2019-04-26T22:54:49.223Z,21.27
2019-04-26T22:57:17.843Z,22.83
2019-04-26T22:59:50.301Z,22.90
2019-04-26T23:02:18.551Z,19.13
2019-04-26T23:04:47.357Z,22.77
2019-04-26T23:07:18.275Z,21.10
2019-04-26T23:09:51.902Z,20.77
2019-04-26T23:12:27.697Z,20.23
2019-04-26T23:14:56.383Z,18.33
2019-04-26T23:17:31.355Z,18.30
2019-04-26T23:20:10.478Z,27.03
2019-04-26T23:22:39.054Z,15.53
2019-04-26T23:25:07.534Z,18.10
2019-04-26T23:27:36.010Z,20.37
2019-04-26T23:30:05.422Z,15.70
2019-04-26T23:32:33.958Z,16.23
2019-04-26T23:35:05.965Z,20.97
2019-04-26T23:37:32.748Z,17.77
2019-04-26T23:40:01.222Z,26.63
2019-04-26T23:42:29.720Z,19.13
2019-04-26T23:44:58.237Z,19.30
2019-04-26T23:47:26.711Z,28.63
2019-04-26T23:49:57.002Z,19.73
2019-04-26T23:52:25.443Z,21.07
2019-04-26T23:54:53.924Z,20.50
2019-04-26T23:57:22.405Z,23.30
2019-04-26T23:59:55.307Z,28.20
